createdAt,value
2017-04-15T00:01:06.795Z,-1.81
2017-04-15T00:02:17.044Z,-1.81
2017-04-15T00:03:27.304Z,-1.86
2017-04-15T00:04:37.555Z,-1.89
2017-04-15T00:05:47.815Z,-1.9
2017-04-15T00:06:57.758Z,-1.86
2017-04-15T00:08:08.010Z,-1.9
2017-04-15T00:09:18.260Z,-1.93
2017-04-15T00:10:28.514Z,-1.9
2017-04-15T00:11:38.758Z,-1.89
2017-04-15T00:12:49.007Z,-1.92
2017-04-15T00:13:59.262Z,-1.93
2017-04-15T00:15:09.572Z,-1.92
2017-04-15T00:16:20.037Z,-1.93
2017-04-15T00:17:30.285Z,-2.04
2017-04-15T00:18:40.589Z,-1.94
2017-04-15T00:19:50.840Z,-1.9
2017-04-15T00:21:01.100Z,-1.99
2017-04-15T00:22:14.409Z,-1.93
2017-04-15T00:23:24.031Z,-1.93
2017-04-15T00:24:34.279Z,-1.96
2017-04-15T00:25:43.897Z,-1.94
2017-04-15T00:26:54.171Z,-1.97
2017-04-15T00:28:04.424Z,-2.04
2017-04-15T00:29:14.695Z,-2.05
2017-04-15T00:30:24.994Z,-2.11
2017-04-15T00:31:35.245Z,-2.07
2017-04-15T00:32:45.490Z,-2.13
2017-04-15T00:33:55.744Z,-2.17
2017-04-15T00:35:05.679Z,-2.11
2017-04-15T00:36:15.926Z,-2.11
2017-04-15T00:37:26.175Z,-2.11
2017-04-15T00:38:36.430Z,-2.17
2017-04-15T00:39:46.680Z,-2.2
2017-04-15T00:40:56.967Z,-2.23
2017-04-15T00:42:07.227Z,-2.17
2017-04-15T00:43:17.306Z,-2.22
2017-04-15T00:44:27.562Z,-2.18
2017-04-15T00:45:37.820Z,-2.22
2017-04-15T00:46:48.075Z,-2.26
2017-04-15T00:47:58.327Z,-2.2
2017-04-15T00:49:08.598Z,-2.22
2017-04-15T00:50:18.548Z,-2.17
2017-04-15T00:51:28.802Z,-2.13
2017-04-15T00:52:39.064Z,-2.23
2017-04-15T00:53:49.313Z,-2.17
2017-04-15T00:54:59.554Z,-2.26
2017-04-15T00:56:09.809Z,-2.18
2017-04-15T00:57:20.067Z,-2.18
2017-04-15T00:58:30.316Z,-2.2
2017-04-15T00:59:40.576Z,-2.2
2017-04-15T01:00:50.503Z,-2.22
2017-04-15T01:02:00.750Z,-2.23
2017-04-15T01:03:10.373Z,-2.15
2017-04-15T01:04:20.626Z,-2.15
2017-04-15T01:05:30.878Z,-2.34
2017-04-15T01:06:41.129Z,-2.23
2017-04-15T01:07:51.063Z,-2.34
2017-04-15T01:09:01.311Z,-2.28
2017-04-15T01:10:11.817Z,-2.32
2017-04-15T01:11:21.827Z,-2.32
2017-04-15T01:12:32.073Z,-2.32
2017-04-15T01:13:42.325Z,-2.48
2017-04-15T01:14:52.573Z,-2.33
2017-04-15T01:16:02.816Z,-2.29
2017-04-15T01:17:13.059Z,-2.32
2017-04-15T01:18:23.320Z,-2.33
2017-04-15T01:19:33.574Z,-2.48
2017-04-15T01:20:43.822Z,-2.39
2017-04-15T01:21:54.071Z,-2.33
2017-04-15T01:23:04.322Z,-2.45
2017-04-15T01:24:14.577Z,-2.47
2017-04-15T01:25:24.825Z,-2.48
2017-04-15T01:26:35.069Z,-2.48
2017-04-15T01:27:45.313Z,-2.48
2017-04-15T01:28:55.564Z,-2.36
2017-04-15T01:30:05.505Z,-2.36
2017-04-15T01:31:15.768Z,-2.32
2017-04-15T01:32:26.028Z,-2.37
2017-04-15T01:33:36.290Z,-2.28
2017-04-15T01:34:46.545Z,-2.33
2017-04-15T01:35:56.796Z,-2.34
2017-04-15T01:37:07.048Z,-2.36
2017-04-15T01:38:17.293Z,-2.32
2017-04-15T01:39:27.538Z,-2.39
2017-04-15T01:40:37.965Z,-2.26
2017-04-15T01:41:48.220Z,-2.18
2017-04-15T01:42:58.673Z,-2.2
2017-04-15T01:44:08.924Z,-2.2
2017-04-15T01:45:19.196Z,-2.22
2017-04-15T01:46:29.450Z,-2.2
2017-04-15T01:47:39.706Z,-2.11
2017-04-15T01:48:49.954Z,-2.11
2017-04-15T01:50:00.205Z,-2.02
2017-04-15T01:51:10.452Z,-2.05
2017-04-15T01:52:20.392Z,-2.02
2017-04-15T01:53:30.643Z,-2.04
2017-04-15T01:54:40.895Z,-1.93
2017-04-15T01:55:51.144Z,-1.97
2017-04-15T01:57:01.390Z,-1.94
2017-04-15T01:58:11.648Z,-1.9
2017-04-15T01:59:21.899Z,-1.87
2017-04-15T02:00:32.155Z,-1.92
2017-04-15T02:01:42.400Z,-1.94
2017-04-15T02:02:52.671Z,-1.93
2017-04-15T02:04:02.917Z,-1.9
2017-04-15T02:05:13.167Z,-1.78
2017-04-15T02:06:23.435Z,-1.79
2017-04-15T02:07:33.368Z,-1.81
2017-04-15T02:08:43.625Z,-1.79
2017-04-15T02:09:53.877Z,-1.72
2017-04-15T02:11:04.121Z,-1.66
2017-04-15T02:12:14.375Z,-1.81
2017-04-15T02:13:24.778Z,-1.74
2017-04-15T02:14:35.037Z,-1.66
2017-04-15T02:15:45.293Z,-1.74
2017-04-15T02:16:55.539Z,-1.72
2017-04-15T02:18:05.786Z,-1.68
2017-04-15T02:19:16.041Z,-1.71
2017-04-15T02:20:26.292Z,-1.66
2017-04-15T02:21:36.536Z,-1.66
2017-04-15T02:22:46.782Z,-1.69
2017-04-15T02:23:57.046Z,-1.63
2017-04-15T02:25:07.296Z,-1.66
2017-04-15T02:26:17.548Z,-1.64
2017-04-15T02:27:27.481Z,-1.66
2017-04-15T02:28:37.745Z,-1.74
2017-04-15T02:29:48.003Z,-1.75
2017-04-15T02:31:01.856Z,-1.74
2017-04-15T02:32:12.096Z,-1.71
2017-04-15T02:33:22.428Z,-1.74
2017-04-15T02:34:32.677Z,-1.71
2017-04-15T02:35:42.919Z,-1.74
2017-04-15T02:36:52.857Z,-1.76
2017-04-15T02:38:03.107Z,-1.68
2017-04-15T02:39:13.356Z,-1.78
2017-04-15T02:40:23.611Z,-1.76
2017-04-15T02:41:33.859Z,-1.87
2017-04-15T02:42:44.117Z,-1.94
2017-04-15T02:43:54.368Z,-1.97
2017-04-15T02:45:04.614Z,-1.92
2017-04-15T02:46:14.863Z,-1.87
2017-04-15T02:47:24.806Z,-1.92
2017-04-15T02:48:35.059Z,-1.89
2017-04-15T02:49:45.310Z,-1.87
2017-04-15T02:50:55.240Z,-1.87
2017-04-15T02:52:05.485Z,-1.87
2017-04-15T02:53:15.425Z,-2
2017-04-15T02:54:25.674Z,-1.94
2017-04-15T02:55:35.918Z,-2.04
2017-04-15T02:56:45.850Z,-1.97
2017-04-15T02:57:56.100Z,-1.97
2017-04-15T02:59:06.346Z,-2.02
2017-04-15T03:00:16.604Z,-1.99
2017-04-15T03:01:26.778Z,-2.08
2017-04-15T03:02:37.025Z,-2.05
2017-04-15T03:03:47.530Z,-2.11
2017-04-15T03:04:57.799Z,-2.04
2017-04-15T03:06:07.741Z,-2.15
2017-04-15T03:07:17.991Z,-2.15
2017-04-15T03:08:28.254Z,-2.11
2017-04-15T03:09:38.509Z,-2.14
2017-04-15T03:10:48.757Z,-2.13
2017-04-15T03:11:58.705Z,-2.2
2017-04-15T03:13:08.954Z,-2.17
2017-04-15T03:14:19.213Z,-2.22
2017-04-15T03:15:29.465Z,-2.2
2017-04-15T03:16:39.708Z,-2.25
2017-04-15T03:17:49.954Z,-2.25
2017-04-15T03:19:00.208Z,-2.17
2017-04-15T03:20:10.454Z,-2.37
2017-04-15T03:21:20.712Z,-2.33
2017-04-15T03:22:30.958Z,-2.29
2017-04-15T03:23:41.205Z,-2.32
2017-04-15T03:24:51.454Z,-2.37
2017-04-15T03:26:01.699Z,-2.29
2017-04-15T03:27:11.948Z,-2.2
2017-04-15T03:28:22.196Z,-2.26
2017-04-15T03:29:32.444Z,-2.25
2017-04-15T03:30:42.971Z,-2.22
2017-04-15T03:31:52.917Z,-2.18
2017-04-15T03:33:03.168Z,-2.26
2017-04-15T03:34:13.426Z,-2.18
2017-04-15T03:35:23.681Z,-2.23
2017-04-15T03:36:33.923Z,-2.28
2017-04-15T03:37:44.182Z,-2.15
2017-04-15T03:38:54.446Z,-2.2
2017-04-15T03:40:04.695Z,-2.15
2017-04-15T03:41:14.935Z,-2.11
2017-04-15T03:42:25.186Z,-2.17
2017-04-15T03:43:35.430Z,-2.17
2017-04-15T03:44:45.677Z,-2.17
2017-04-15T03:45:55.923Z,-2.25
2017-04-15T03:47:06.188Z,-2.23
2017-04-15T03:48:16.127Z,-2.14
2017-04-15T03:49:26.378Z,-2.23
2017-04-15T03:50:36.630Z,-2.17
2017-04-15T03:51:46.885Z,-2.22
2017-04-15T03:52:56.816Z,-2.17
2017-04-15T03:54:06.750Z,-2.11
2017-04-15T03:55:16.998Z,-2.18
2017-04-15T03:56:27.246Z,-2.14
2017-04-15T03:57:37.491Z,-2.22
2017-04-15T03:58:47.425Z,-2.07
2017-04-15T03:59:57.677Z,-2
2017-04-15T04:01:07.923Z,-2.07
2017-04-15T04:02:18.174Z,-2.02
2017-04-15T04:03:28.424Z,-2.08
2017-04-15T04:04:38.797Z,-1.97
2017-04-15T04:05:49.445Z,-1.92
2017-04-15T04:06:59.694Z,-1.97
2017-04-15T04:08:09.953Z,-1.87
2017-04-15T04:09:20.205Z,-1.99
2017-04-15T04:10:30.460Z,-1.89
2017-04-15T04:11:40.716Z,-1.84
2017-04-15T04:12:50.968Z,-1.82
2017-04-15T04:14:01.219Z,-1.89
2017-04-15T04:15:11.483Z,-1.79
2017-04-15T04:16:21.730Z,-1.86
2017-04-15T04:17:31.975Z,-1.84
2017-04-15T04:18:42.219Z,-1.92
2017-04-15T04:19:52.473Z,-2
2017-04-15T04:21:02.745Z,-2.02
2017-04-15T04:22:12.999Z,-1.99
2017-04-15T04:23:23.248Z,-2
2017-04-15T04:24:33.506Z,-2.04
2017-04-15T04:25:43.755Z,-2.08
2017-04-15T04:26:54.008Z,-2.08
2017-04-15T04:28:04.262Z,-2.13
2017-04-15T04:29:14.506Z,-2.13
2017-04-15T04:30:24.753Z,-2.13
2017-04-15T04:31:35.012Z,-2
2017-04-15T04:32:45.283Z,-1.87
2017-04-15T04:33:55.536Z,-1.82
2017-04-15T04:35:05.726Z,-1.78
2017-04-15T04:36:15.967Z,-1.74
2017-04-15T04:37:26.355Z,-1.61
2017-04-15T04:38:36.575Z,-1.63
2017-04-15T04:39:46.617Z,-1.5
2017-04-15T04:40:56.561Z,-1.46
2017-04-15T04:42:06.812Z,-1.46
2017-04-15T04:43:17.069Z,-1.46
2017-04-15T04:44:27.325Z,-1.43
2017-04-15T04:45:37.570Z,-1.4
2017-04-15T04:46:47.818Z,-1.43
2017-04-15T04:47:58.074Z,-1.4
2017-04-15T04:49:08.340Z,-1.38
2017-04-15T04:50:18.615Z,-1.46
2017-04-15T04:51:28.860Z,-1.39
2017-04-15T04:52:39.121Z,-1.4
2017-04-15T04:53:49.374Z,-1.45
2017-04-15T04:54:59.311Z,-1.42
2017-04-15T04:56:09.246Z,-1.5
2017-04-15T04:57:19.496Z,-1.38
2017-04-15T04:58:29.748Z,-1.36
2017-04-15T04:59:40.003Z,-1.32
2017-04-15T05:00:49.935Z,-1.32
2017-04-15T05:02:00.188Z,-1.38
2017-04-15T05:03:10.438Z,-1.38
2017-04-15T05:04:20.700Z,-1.33
2017-04-15T05:05:30.644Z,-1.38
2017-04-15T05:06:40.916Z,-1.36
2017-04-15T05:07:51.170Z,-1.29
2017-04-15T05:09:01.144Z,-1.36
2017-04-15T05:10:11.173Z,-1.4
2017-04-15T05:11:21.640Z,-1.42
2017-04-15T05:12:32.040Z,-1.39
2017-04-15T05:13:41.976Z,-1.45
2017-04-15T05:14:52.235Z,-1.5
2017-04-15T05:16:02.528Z,-1.5
2017-04-15T05:17:12.786Z,-1.54
2017-04-15T05:18:22.723Z,-1.43
2017-04-15T05:19:32.977Z,-1.42
2017-04-15T05:20:45.239Z,-1.5
2017-04-15T05:21:55.488Z,-1.42
2017-04-15T05:23:05.738Z,-1.43
2017-04-15T05:24:15.987Z,-1.4
2017-04-15T05:25:26.241Z,-1.43
2017-04-15T05:26:36.517Z,-1.36
2017-04-15T05:27:46.771Z,-1.46
2017-04-15T05:28:57.020Z,-1.5
2017-04-15T05:30:07.268Z,-1.4
2017-04-15T05:31:17.521Z,-1.39
2017-04-15T05:32:27.771Z,-1.45
2017-04-15T05:33:38.013Z,-1.43
2017-04-15T05:34:47.953Z,-1.36
2017-04-15T05:35:58.207Z,-1.3
2017-04-15T05:37:08.470Z,-1.38
2017-04-15T05:38:18.720Z,-1.29
2017-04-15T05:39:28.962Z,-1.18
2017-04-15T05:40:39.232Z,-1.21
2017-04-15T05:41:49.170Z,-1.14
2017-04-15T05:42:59.414Z,-1.11
2017-04-15T05:44:09.359Z,-1.07
2017-04-15T05:45:19.623Z,-1.07
2017-04-15T05:46:29.875Z,-1.09
2017-04-15T05:47:39.816Z,-1.04
2017-04-15T05:48:50.068Z,-0.97
2017-04-15T05:50:00.365Z,-1.01
2017-04-15T05:51:10.300Z,-1.01
2017-04-15T05:52:20.547Z,-1
2017-04-15T05:53:30.953Z,-0.96
2017-04-15T05:54:40.889Z,-1
2017-04-15T05:55:51.250Z,-0.85
2017-04-15T05:57:01.654Z,-0.82
2017-04-15T05:58:12.001Z,-0.87
2017-04-15T05:59:22.285Z,-0.82
2017-04-15T06:00:32.544Z,-0.77
2017-04-15T06:01:42.798Z,-0.78
2017-04-15T06:02:53.055Z,-0.77
2017-04-15T06:04:03.306Z,-0.72
2017-04-15T06:05:13.564Z,-0.75
2017-04-15T06:06:23.816Z,-0.77
2017-04-15T06:07:34.060Z,-0.78
2017-04-15T06:08:44.316Z,-0.67
2017-04-15T06:09:54.567Z,-0.72
2017-04-15T06:11:04.511Z,-0.69
2017-04-15T06:12:14.443Z,-0.69
2017-04-15T06:13:24.698Z,-0.66
2017-04-15T06:14:34.946Z,-0.62
2017-04-15T06:15:45.192Z,-0.67
2017-04-15T06:16:55.442Z,-0.69
2017-04-15T06:18:05.384Z,-0.64
2017-04-15T06:19:15.644Z,-0.69
2017-04-15T06:20:25.919Z,-0.72
2017-04-15T06:21:36.162Z,-0.57
2017-04-15T06:22:46.098Z,-0.57
2017-04-15T06:23:56.355Z,-0.53
2017-04-15T06:25:05.980Z,-0.6
2017-04-15T06:26:16.236Z,-0.56
2017-04-15T06:27:26.501Z,-0.54
2017-04-15T06:28:36.753Z,-0.48
2017-04-15T06:29:47.006Z,-0.45
2017-04-15T06:30:57.268Z,-0.45
2017-04-15T06:32:07.521Z,-0.46
2017-04-15T06:33:17.459Z,-0.41
2017-04-15T06:34:27.718Z,-0.38
2017-04-15T06:35:37.972Z,-0.33
2017-04-15T06:36:48.223Z,-0.28
2017-04-15T06:37:58.472Z,-0.23
2017-04-15T06:39:08.723Z,-0.18
2017-04-15T06:40:19.209Z,-0.12
2017-04-15T06:41:29.538Z,-0.03
2017-04-15T06:42:39.939Z,-0.05
2017-04-15T06:43:50.209Z,0
2017-04-15T06:45:00.277Z,0.02
2017-04-15T06:46:10.539Z,0.05
2017-04-15T06:47:20.877Z,0.12
2017-04-15T06:48:30.934Z,0.16
2017-04-15T06:49:41.284Z,0.26
2017-04-15T06:50:51.531Z,0.31
2017-04-15T06:52:01.781Z,0.33
2017-04-15T06:53:12.042Z,0.42
2017-04-15T06:54:22.307Z,0.44
2017-04-15T06:55:32.568Z,0.51
2017-04-15T06:56:42.506Z,0.47
2017-04-15T06:57:52.761Z,0.48
2017-04-15T06:59:03.011Z,0.48
2017-04-15T07:00:13.256Z,0.44
2017-04-15T07:01:23.506Z,0.47
2017-04-15T07:02:33.442Z,0.52
2017-04-15T07:03:43.707Z,0.47
2017-04-15T07:04:53.962Z,0.56
2017-04-15T07:06:04.211Z,0.63
2017-04-15T07:07:14.146Z,0.49
2017-04-15T07:08:24.398Z,0.51
2017-04-15T07:09:34.645Z,0.51
2017-04-15T07:10:44.895Z,0.42
2017-04-15T07:11:55.154Z,0.4
2017-04-15T07:13:05.407Z,0.37
2017-04-15T07:14:15.664Z,0.36
2017-04-15T07:15:25.909Z,0.36
2017-04-15T07:16:36.156Z,0.4
2017-04-15T07:17:46.419Z,0.49
2017-04-15T07:18:56.689Z,0.42
2017-04-15T07:20:06.949Z,0.37
2017-04-15T07:21:17.231Z,0.39
2017-04-15T07:22:27.491Z,0.33
2017-04-15T07:23:37.434Z,0.39
2017-04-15T07:24:47.685Z,0.45
2017-04-15T07:25:57.939Z,0.44
2017-04-15T07:27:07.245Z,0.48
2017-04-15T07:28:17.495Z,0.51
2017-04-15T07:29:27.750Z,0.63
2017-04-15T07:30:37.997Z,0.58
2017-04-15T07:31:48.245Z,0.66
2017-04-15T07:32:58.496Z,0.74
2017-04-15T07:34:08.624Z,0.77
2017-04-15T07:35:18.650Z,0.85
2017-04-15T07:36:28.976Z,0.91
2017-04-15T07:37:39.476Z,0.99
2017-04-15T07:38:49.866Z,1.09
2017-04-15T07:40:00.118Z,1.13
2017-04-15T07:41:10.366Z,1.16
2017-04-15T07:42:20.615Z,1.21
2017-04-15T07:43:30.864Z,1.31
2017-04-15T07:44:41.117Z,1.48
2017-04-15T07:45:51.051Z,1.61
2017-04-15T07:47:01.305Z,1.76
2017-04-15T07:48:11.243Z,1.86
2017-04-15T07:49:21.190Z,2.01
2017-04-15T07:50:31.459Z,2.01
2017-04-15T07:51:41.710Z,1.98
2017-04-15T07:52:51.962Z,2.16
2017-04-15T07:54:02.222Z,2.19
2017-04-15T07:55:12.168Z,2.39
2017-04-15T07:56:22.422Z,2.34
2017-04-15T07:57:32.668Z,2.37
2017-04-15T07:58:42.919Z,2.52
2017-04-15T07:59:53.179Z,2.5
2017-04-15T08:01:03.434Z,2.51
2017-04-15T08:02:13.378Z,2.57
2017-04-15T08:03:23.633Z,2.57
2017-04-15T08:04:33.895Z,2.61
2017-04-15T08:05:44.147Z,2.55
2017-04-15T08:06:54.405Z,2.62
2017-04-15T08:08:04.662Z,2.76
2017-04-15T08:09:14.604Z,2.91
2017-04-15T08:10:24.863Z,2.87
2017-04-15T08:11:35.118Z,2.88
2017-04-15T08:12:45.372Z,2.94
2017-04-15T08:13:55.633Z,3.03
2017-04-15T08:15:05.888Z,2.91
2017-04-15T08:16:16.310Z,2.88
2017-04-15T08:17:26.718Z,2.88
2017-04-15T08:18:37.185Z,2.88
2017-04-15T08:19:47.440Z,2.85
2017-04-15T08:20:57.692Z,2.88
2017-04-15T08:22:07.956Z,2.98
2017-04-15T08:23:17.903Z,3.06
2017-04-15T08:24:28.162Z,3.05
2017-04-15T08:25:38.422Z,3.05
2017-04-15T08:26:48.356Z,3.22
2017-04-15T08:27:58.617Z,3.3
2017-04-15T08:29:08.889Z,3.4
2017-04-15T08:30:19.147Z,3.37
2017-04-15T08:31:29.402Z,3.33
2017-04-15T08:32:39.654Z,3.34
2017-04-15T08:33:49.910Z,3.41
2017-04-15T08:35:00.170Z,3.41
2017-04-15T08:36:10.425Z,3.56
2017-04-15T08:37:20.366Z,3.61
2017-04-15T08:38:30.617Z,3.58
2017-04-15T08:39:40.869Z,3.66
2017-04-15T08:40:51.123Z,3.66
2017-04-15T08:42:01.374Z,3.73
2017-04-15T08:43:11.634Z,3.56
2017-04-15T08:44:21.572Z,3.66
2017-04-15T08:45:31.827Z,3.61
2017-04-15T08:46:42.079Z,3.67
2017-04-15T08:47:52.350Z,3.7
2017-04-15T08:49:02.609Z,3.76
2017-04-15T08:50:12.864Z,3.81
2017-04-15T08:51:23.121Z,3.92
2017-04-15T08:52:33.374Z,3.94
2017-04-15T08:53:43.636Z,3.94
2017-04-15T08:54:53.963Z,3.89
2017-04-15T08:56:04.377Z,4.04
2017-04-15T08:57:14.639Z,4.18
2017-04-15T08:58:24.901Z,4.3
2017-04-15T08:59:35.356Z,4.32
2017-04-15T09:00:45.610Z,4.34
2017-04-15T09:01:55.867Z,4.36
2017-04-15T09:03:06.129Z,4.45
2017-04-15T09:04:16.389Z,4.46
2017-04-15T09:05:26.332Z,4.5
2017-04-15T09:06:36.596Z,4.52
2017-04-15T09:07:46.851Z,4.49
2017-04-15T09:08:57.114Z,4.42
2017-04-15T09:10:07.371Z,4.46
2017-04-15T09:11:17.624Z,4.36
2017-04-15T09:12:27.882Z,4.31
2017-04-15T09:13:38.149Z,4.4
2017-04-15T09:14:48.095Z,4.36
2017-04-15T09:15:58.359Z,4.34
2017-04-15T09:17:08.614Z,4.25
2017-04-15T09:18:18.878Z,4.25
2017-04-15T09:19:29.137Z,4.34
2017-04-15T09:20:39.404Z,4.43
2017-04-15T09:21:49.656Z,4.36
2017-04-15T09:22:59.909Z,4.32
2017-04-15T09:24:09.855Z,4.22
2017-04-15T09:25:19.802Z,4.12
2017-04-15T09:26:30.067Z,4.12
2017-04-15T09:27:40.316Z,4.16
2017-04-15T09:28:50.572Z,4.16
2017-04-15T09:30:00.829Z,4.16
2017-04-15T09:31:11.097Z,4.28
2017-04-15T09:32:21.354Z,4.22
2017-04-15T09:33:31.605Z,4.3
2017-04-15T09:34:41.932Z,4.3
2017-04-15T09:35:52.209Z,4.3
2017-04-15T09:37:02.470Z,4.21
2017-04-15T09:38:12.419Z,4.14
2017-04-15T09:39:22.827Z,4.14
2017-04-15T09:40:32.770Z,4.18
2017-04-15T09:41:43.025Z,4.18
2017-04-15T09:42:53.281Z,4.4
2017-04-15T09:44:03.539Z,4.4
2017-04-15T09:45:13.483Z,4.48
2017-04-15T09:46:23.751Z,4.48
2017-04-15T09:47:34.002Z,4.57
2017-04-15T09:48:44.269Z,4.5
2017-04-15T09:49:54.529Z,4.66
2017-04-15T09:51:04.485Z,4.64
2017-04-15T09:52:14.740Z,4.74
2017-04-15T09:53:24.998Z,4.78
2017-04-15T09:54:35.252Z,4.78
2017-04-15T09:55:45.194Z,4.71
2017-04-15T09:56:55.464Z,4.84
2017-04-15T09:58:05.720Z,4.87
2017-04-15T09:59:15.980Z,4.79
2017-04-15T10:00:26.245Z,4.89
2017-04-15T10:01:36.512Z,4.9
2017-04-15T10:02:46.772Z,4.89
2017-04-15T10:03:57.028Z,4.9
2017-04-15T10:05:06.970Z,4.95
2017-04-15T10:06:17.227Z,5.05
2017-04-15T10:07:27.476Z,5.07
2017-04-15T10:08:37.427Z,5.04
2017-04-15T10:09:47.692Z,5.01
2017-04-15T10:10:57.654Z,4.98
2017-04-15T10:12:07.613Z,5.13
2017-04-15T10:13:18.215Z,5.02
2017-04-15T10:14:28.484Z,5.02
2017-04-15T10:15:39.245Z,5.02
2017-04-15T10:16:49.497Z,4.98
2017-04-15T10:17:59.758Z,5.02
2017-04-15T10:19:10.017Z,5.1
2017-04-15T10:20:20.273Z,5.04
2017-04-15T10:21:30.530Z,5.04
2017-04-15T10:22:40.797Z,5.15
2017-04-15T10:23:51.055Z,5.1
2017-04-15T10:25:01.310Z,5.04
2017-04-15T10:26:11.256Z,5.15
2017-04-15T10:27:21.510Z,5.12
2017-04-15T10:28:31.771Z,5.2
2017-04-15T10:29:42.031Z,5.19
2017-04-15T10:30:52.295Z,5.22
2017-04-15T10:32:02.550Z,5.31
2017-04-15T10:33:12.807Z,5.25
2017-04-15T10:34:23.072Z,5.34
2017-04-15T10:35:33.023Z,5.37
2017-04-15T10:36:43.282Z,5.33
2017-04-15T10:37:53.551Z,5.41
2017-04-15T10:39:03.503Z,5.46
2017-04-15T10:40:13.776Z,5.34
2017-04-15T10:41:24.039Z,5.25
2017-04-15T10:42:34.299Z,5.26
2017-04-15T10:43:44.561Z,5.26
2017-04-15T10:44:54.509Z,5.34
2017-04-15T10:46:04.770Z,5.37
2017-04-15T10:47:15.022Z,5.34
2017-04-15T10:48:25.284Z,5.26
2017-04-15T10:49:35.559Z,5.2
2017-04-15T10:50:45.813Z,5.29
2017-04-15T10:51:56.070Z,5.34
2017-04-15T10:53:06.323Z,5.51
2017-04-15T10:54:16.320Z,5.51
2017-04-15T10:55:26.781Z,5.62
2017-04-15T10:56:37.220Z,5.7
2017-04-15T10:57:47.652Z,5.74
2017-04-15T10:58:57.921Z,5.72
2017-04-15T11:00:08.180Z,5.8
2017-04-15T11:01:18.438Z,5.8
2017-04-15T11:02:28.723Z,5.77
2017-04-15T11:03:38.980Z,5.77
2017-04-15T11:04:49.243Z,5.79
2017-04-15T11:05:59.504Z,5.74
2017-04-15T11:07:09.479Z,5.74
2017-04-15T11:08:19.745Z,5.61
2017-04-15T11:09:30.018Z,5.64
2017-04-15T11:10:40.279Z,5.77
2017-04-15T11:11:50.553Z,5.79
2017-04-15T11:13:00.822Z,5.81
2017-04-15T11:14:11.084Z,5.74
2017-04-15T11:15:21.028Z,5.9
2017-04-15T11:16:31.282Z,6.01
2017-04-15T11:17:41.544Z,6.05
2017-04-15T11:18:51.801Z,6.1
2017-04-15T11:20:02.064Z,6.12
2017-04-15T11:21:12.323Z,6.07
2017-04-15T11:22:22.275Z,5.87
2017-04-15T11:23:32.640Z,6.05
2017-04-15T11:24:42.594Z,6.07
2017-04-15T11:25:52.860Z,6.16
2017-04-15T11:27:03.120Z,6.2
2017-04-15T11:28:13.385Z,6.32
2017-04-15T11:29:23.654Z,6.46
2017-04-15T11:30:33.918Z,6.62
2017-04-15T11:31:44.194Z,6.71
2017-04-15T11:32:54.456Z,6.77
2017-04-15T11:34:04.771Z,6.85
2017-04-15T11:35:15.217Z,6.87
2017-04-15T11:36:25.472Z,7.08
2017-04-15T11:37:35.745Z,6.95
2017-04-15T11:38:45.742Z,7.01
2017-04-15T11:39:56.003Z,6.97
2017-04-15T11:41:05.955Z,7.05
2017-04-15T11:42:16.216Z,7.05
2017-04-15T11:43:26.479Z,7
2017-04-15T11:44:36.745Z,6.92
2017-04-15T11:45:47.005Z,6.75
2017-04-15T11:46:57.261Z,6.86
2017-04-15T11:48:06.896Z,6.92
2017-04-15T11:49:17.164Z,6.95
2017-04-15T11:50:27.113Z,7.03
2017-04-15T11:51:37.373Z,6.9
2017-04-15T11:52:47.637Z,6.75
2017-04-15T11:53:57.908Z,6.64
2017-04-15T11:55:08.171Z,6.65
2017-04-15T11:56:18.437Z,6.6
2017-04-15T11:57:28.713Z,6.71
2017-04-15T11:58:38.972Z,6.71
2017-04-15T11:59:49.226Z,6.78
2017-04-15T12:00:59.483Z,6.83
2017-04-15T12:02:09.737Z,6.74
2017-04-15T12:03:19.687Z,6.82
2017-04-15T12:04:29.954Z,6.74
2017-04-15T12:05:40.211Z,6.74
2017-04-15T12:06:50.471Z,6.8
2017-04-15T12:08:00.726Z,6.77
2017-04-15T12:09:10.662Z,6.75
2017-04-15T12:10:20.609Z,6.93
2017-04-15T12:11:30.868Z,6.83
2017-04-15T12:12:41.134Z,6.9
2017-04-15T12:13:51.410Z,6.96
2017-04-15T12:15:01.818Z,6.85
2017-04-15T12:16:11.942Z,6.82
2017-04-15T12:17:21.584Z,6.89
2017-04-15T12:18:30.903Z,7.01
2017-04-15T12:19:41.358Z,7.01
2017-04-15T12:20:51.619Z,7.01
2017-04-15T12:22:01.564Z,7.05
2017-04-15T12:23:11.833Z,7.03
2017-04-15T12:24:21.778Z,7.04
2017-04-15T12:25:32.031Z,7.05
2017-04-15T12:26:41.977Z,7.15
2017-04-15T12:27:51.923Z,7.13
2017-04-15T12:29:01.868Z,7.29
2017-04-15T12:30:11.815Z,7.18
2017-04-15T12:31:21.759Z,7.23
2017-04-15T12:32:32.019Z,7.22
2017-04-15T12:33:42.281Z,7.14
2017-04-15T12:34:52.539Z,7.11
2017-04-15T12:36:02.798Z,7.19
2017-04-15T12:37:12.110Z,7.26
2017-04-15T12:38:21.424Z,7.28
2017-04-15T12:39:31.689Z,7.29
2017-04-15T12:40:41.643Z,7.36
2017-04-15T12:41:51.903Z,7.31
2017-04-15T12:43:02.163Z,7.13
2017-04-15T12:44:12.435Z,7.1
2017-04-15T12:45:22.699Z,7.13
2017-04-15T12:46:32.953Z,7.28
2017-04-15T12:47:42.584Z,7.31
2017-04-15T12:48:51.898Z,7.23
2017-04-15T12:50:02.160Z,7.23
2017-04-15T12:51:12.415Z,7.4
2017-04-15T12:52:22.677Z,7.25
2017-04-15T12:53:32.933Z,7.18
2017-04-15T12:54:43.192Z,7.15
2017-04-15T12:55:53.468Z,7.19
2017-04-15T12:57:03.811Z,7.15
2017-04-15T12:58:14.256Z,7.22
2017-04-15T12:59:24.328Z,7.15
2017-04-15T13:00:34.687Z,7.19
2017-04-15T13:01:44.939Z,7.14
2017-04-15T13:02:55.217Z,6.97
2017-04-15T13:04:05.498Z,7.05
2017-04-15T13:05:15.445Z,7.07
2017-04-15T13:06:25.703Z,7.04
2017-04-15T13:07:35.959Z,7.07
2017-04-15T13:08:45.924Z,7.25
2017-04-15T13:09:56.199Z,7.26
2017-04-15T13:11:06.464Z,7.51
2017-04-15T13:12:16.741Z,7.81
2017-04-15T13:13:26.374Z,8.16
2017-04-15T13:14:36.645Z,8.57
2017-04-15T13:15:46.907Z,8.75
2017-04-15T13:16:57.164Z,8.81
2017-04-15T13:18:07.423Z,8.93
2017-04-15T13:19:17.377Z,8.96
2017-04-15T13:20:27.325Z,9.03
2017-04-15T13:21:37.276Z,9.19
2017-04-15T13:22:47.543Z,9.11
2017-04-15T13:23:57.811Z,9.31
2017-04-15T13:25:08.071Z,9.18
2017-04-15T13:26:18.333Z,9.08
2017-04-15T13:27:28.601Z,9.08
2017-04-15T13:28:38.856Z,8.99
2017-04-15T13:29:49.121Z,8.9
2017-04-15T13:30:59.376Z,8.9
2017-04-15T13:32:09.647Z,8.97
2017-04-15T13:33:19.639Z,8.77
2017-04-15T13:34:29.585Z,8.79
2017-04-15T13:35:39.851Z,8.75
2017-04-15T13:36:50.106Z,8.71
2017-04-15T13:38:00.374Z,8.75
2017-04-15T13:39:10.645Z,8.72
2017-04-15T13:40:20.909Z,8.57
2017-04-15T13:41:31.092Z,8.81
2017-04-15T13:42:41.045Z,8.81
2017-04-15T13:43:51.428Z,9.02
2017-04-15T13:45:01.701Z,9.15
2017-04-15T13:46:11.961Z,9.42
2017-04-15T13:47:22.221Z,9.48
2017-04-15T13:48:32.171Z,10.12
2017-04-15T13:49:42.437Z,11.04
2017-04-15T13:50:52.702Z,11.22
2017-04-15T13:52:02.972Z,11.3
2017-04-15T13:53:13.233Z,10.86
2017-04-15T13:54:23.531Z,10.72
2017-04-15T13:55:33.779Z,10.59
2017-04-15T13:56:43.735Z,10.58
2017-04-15T13:57:54.000Z,10.86
2017-04-15T13:59:04.266Z,11.56
2017-04-15T14:00:14.217Z,11.52
2017-04-15T14:01:24.165Z,11.45
2017-04-15T14:02:34.119Z,11.18
2017-04-15T14:03:44.390Z,11.71
2017-04-15T14:04:54.655Z,12.48
2017-04-15T14:06:04.929Z,13.27
2017-04-15T14:07:14.880Z,13.97
2017-04-15T14:08:25.148Z,14.4
2017-04-15T14:09:35.417Z,14.85
2017-04-15T14:10:45.366Z,14.58
2017-04-15T14:11:55.629Z,15.08
2017-04-15T14:13:05.898Z,15.26
2017-04-15T14:14:16.178Z,15.72
2017-04-15T14:15:26.447Z,16.06
2017-04-15T14:16:36.722Z,16.58
2017-04-15T14:17:46.678Z,16.59
2017-04-15T14:18:56.956Z,17.01
2017-04-15T14:20:07.246Z,17.39
2017-04-15T14:21:17.520Z,17.39
2017-04-15T14:22:27.801Z,17.46
2017-04-15T14:23:38.071Z,17.12
2017-04-15T14:24:48.342Z,16.91
2017-04-15T14:25:58.620Z,17.1
2017-04-15T14:27:08.888Z,16.44
2017-04-15T14:28:19.164Z,16.55
2017-04-15T14:29:29.432Z,17.12
2017-04-15T14:30:39.702Z,17.09
2017-04-15T14:31:49.348Z,16.87
2017-04-15T14:32:59.625Z,16.76
2017-04-15T14:34:09.592Z,17.24
2017-04-15T14:35:19.860Z,17.56
2017-04-15T14:36:30.137Z,17.91
2017-04-15T14:37:40.412Z,17.76
2017-04-15T14:38:50.694Z,17.97
2017-04-15T14:40:00.964Z,17.41
2017-04-15T14:41:10.937Z,17.14
2017-04-15T14:42:21.215Z,17.27
2017-04-15T14:43:31.510Z,17.59
2017-04-15T14:44:41.501Z,17.78
2017-04-15T14:45:51.792Z,17.93
2017-04-15T14:47:02.059Z,17.98
2017-04-15T14:48:12.020Z,18.19
2017-04-15T14:49:22.289Z,18.06
2017-04-15T14:50:32.272Z,18.39
2017-04-15T14:51:42.567Z,18.53
2017-04-15T14:52:52.848Z,18.41
2017-04-15T14:54:03.346Z,18.71
2017-04-15T14:55:13.622Z,18.66
2017-04-15T14:56:23.581Z,18.43
2017-04-15T14:57:33.853Z,18.64
2017-04-15T14:58:43.836Z,18.89
2017-04-15T14:59:53.803Z,19.34
2017-04-15T15:01:04.082Z,19.79
2017-04-15T15:02:14.381Z,20.1
2017-04-15T15:03:24.657Z,20.29
2017-04-15T15:04:34.307Z,20.39
2017-04-15T15:05:43.954Z,19.78
2017-04-15T15:06:54.233Z,19.84
2017-04-15T15:08:04.508Z,19.96
2017-04-15T15:09:14.790Z,20.1
2017-04-15T15:10:25.068Z,20.29
2017-04-15T15:11:37.499Z,20.49
2017-04-15T15:12:47.461Z,20.6
2017-04-15T15:13:57.739Z,20.8
2017-04-15T15:15:08.012Z,20.78
2017-04-15T15:16:18.296Z,20.74
2017-04-15T15:17:28.565Z,20.55
2017-04-15T15:18:38.835Z,19.9
2017-04-15T15:19:49.116Z,19.63
2017-04-15T15:20:59.384Z,19.35
2017-04-15T15:22:09.658Z,19.37